Time;durP1;ratioP1;P1;durP2;ratioP2;P2;SDS_P1;SDS_P2;PMS_P1;PMS_P2;Temp;Humidity;BMP_temperature;BMP_pressure;BME280_temperature;BME280_humidity;BME280_pressure;Samples;Min_cycle;Max_cycle;Signal;HPM_P1;HPM_P2
2023/09/26 00:00:14;;;;;;;0.70;0.70;;;;;;;;;;4957344;28;20032;-62
2023/09/26 00:02:39;;;;;;;0.60;0.60;;;;;;;;;;4961426;28;20058;-65
2023/09/26 00:05:05;;;;;;;0.60;0.60;;;;;;;;;;4957533;28;20061;-65
2023/09/26 00:07:31;;;;;;;0.55;0.55;;;;;;;;;;4954745;28;20315;-63
2023/09/26 00:09:56;;;;;;;0.55;0.55;;;;;;;;;;4960387;28;20792;-62
2023/09/26 00:12:21;;;;;;;0.50;0.50;;;;;;;;;;4958786;28;20042;-65
2023/09/26 00:14:46;;;;;;;0.60;0.60;;;;;;;;;;4960852;28;20035;-62
2023/09/26 00:17:12;;;;;;;0.60;0.60;;;;;;;;;;4957727;28;20130;-62
2023/09/26 00:19:37;;;;;;;0.60;0.60;;;;;;;;;;4958274;28;20046;-62
2023/09/26 00:22:02;;;;;;;0.60;0.60;;;;;;;;;;4961062;28;20047;-61
2023/09/26 00:24:28;;;;;;;0.60;0.60;;;;;;;;;;4955744;28;20034;-60
2023/09/26 00:26:53;;;;;;;0.50;0.50;;;;;;;;;;4948464;28;20167;-63
2023/09/26 00:29:18;;;;;;;0.50;0.50;;;;;;;;;;4954458;28;20655;-62
2023/09/26 00:31:43;;;;;;;0.60;0.60;;;;;;;;;;4953164;28;20058;-61
2023/09/26 00:34:10;;;;;;;0.60;0.60;;;;;;;;;;4961297;28;20031;-61
2023/09/26 00:36:36;;;;;;;0.60;0.60;;;;;;;;;;4951839;28;20429;-63
2023/09/26 00:39:01;;;;;;;0.60;0.60;;;;;;;;;;4951607;28;20043;-62
2023/09/26 00:41:26;;;;;;;0.60;0.60;;;;;;;;;;4954592;28;20134;-62
2023/09/26 00:43:51;;;;;;;0.60;0.60;;;;;;;;;;4957205;28;20041;-62
2023/09/26 00:46:17;;;;;;;0.60;0.60;;;;;;;;;;4954489;28;20480;-61
2023/09/26 00:48:42;;;;;;;0.60;0.60;;;;;;;;;;4953745;28;20058;-61
2023/09/26 00:51:08;;;;;;;0.65;0.65;;;;;;;;;;4959663;28;20045;-62
2023/09/26 00:53:36;;;;;;;0.60;0.60;;;;;;;;;;4956813;28;20435;-62
2023/09/26 00:56:02;;;;;;;0.60;0.60;;;;;;;;;;4955922;28;20023;-63
2023/09/26 00:58:28;;;;;;;0.60;0.60;;;;;;;;;;4956825;28;20206;-62
2023/09/26 01:00:54;;;;;;;0.60;0.60;;;;;;;;;;4958065;28;20114;-62
2023/09/26 01:03:20;;;;;;;0.60;0.60;;;;;;;;;;4950819;28;20380;-62
2023/09/26 01:05:46;;;;;;;0.60;0.60;;;;;;;;;;4951965;28;20027;-61
2023/09/26 01:08:11;;;;;;;0.60;0.60;;;;;;;;;;4954438;28;20385;-61
2023/09/26 01:10:37;;;;;;;0.60;0.60;;;;;;;;;;4961489;28;20035;-61
2023/09/26 01:13:03;;;;;;;0.60;0.60;;;;;;;;;;4953421;28;20027;-63
2023/09/26 01:15:35;;;;;;;0.60;0.60;;;;;;;;;;4952919;28;20525;-63
2023/09/26 01:18:01;;;;;;;0.60;0.60;;;;;;;;;;4951396;28;20126;-61
2023/09/26 01:20:28;;;;;;;0.60;0.60;;;;;;;;;;4949605;28;20039;-63
2023/09/26 01:22:53;;;;;;;;;;;;;;;;;;4952537;28;20018;-64
2023/09/26 01:25:19;;;;;;;0.60;0.60;;;;;;;;;;4963067;28;19957;-62
2023/09/26 01:27:44;;;;;;;0.60;0.60;;;;;;;;;;4957045;28;20045;-63
2023/09/26 01:30:11;;;;;;;0.60;0.60;;;;;;;;;;4951379;28;20454;-64
2023/09/26 01:32:36;;;;;;;0.70;0.70;;;;;;;;;;4953068;28;20690;-62
2023/09/26 01:35:01;;;;;;;0.50;0.50;;;;;;;;;;4951355;28;20093;-62
2023/09/26 01:37:27;;;;;;;0.60;0.60;;;;;;;;;;4956963;28;20113;-63
2023/09/26 01:39:52;;;;;;;0.60;0.60;;;;;;;;;;4954347;28;20039;-62
2023/09/26 01:42:17;;;;;;;0.60;0.60;;;;;;;;;;4954707;28;22044;-61
2023/09/26 01:44:43;;;;;;;0.60;0.60;;;;;;;;;;4953078;28;20042;-62
2023/09/26 01:47:14;;;;;;;0.60;0.60;;;;;;;;;;4955645;28;20031;-63
2023/09/26 01:49:39;;;;;;;0.68;0.68;;;;;;;;;;4940986;28;20047;-62
2023/09/26 01:52:04;;;;;;;0.50;0.50;;;;;;;;;;4959211;28;20099;-63
2023/09/26 01:54:30;;;;;;;0.60;0.60;;;;;;;;;;4955401;28;20038;-63
2023/09/26 01:56:55;;;;;;;0.60;0.60;;;;;;;;;;4952120;28;20039;-63
2023/09/26 01:59:20;;;;;;;0.60;0.60;;;;;;;;;;4955512;28;20039;-63
2023/09/26 02:01:46;;;;;;;0.60;0.60;;;;;;;;;;4953372;28;20043;-63
2023/09/26 02:04:11;;;;;;;0.70;0.70;;;;;;;;;;4952484;28;20023;-62
2023/09/26 02:06:36;;;;;;;0.60;0.60;;;;;;;;;;4945823;28;20062;-63
2023/09/26 02:09:01;;;;;;;0.60;0.60;;;;;;;;;;4951445;28;20031;-63
2023/09/26 02:11:28;;;;;;;0.60;0.60;;;;;;;;;;4953873;28;20101;-61
2023/09/26 02:13:53;;;;;;;0.50;0.50;;;;;;;;;;4947481;28;20476;-62
2023/09/26 02:16:18;;;;;;;0.60;0.60;;;;;;;;;;4955055;28;20043;-62
2023/09/26 02:18:44;;;;;;;0.60;0.60;;;;;;;;;;4951072;28;20084;-61
2023/09/26 02:21:16;;;;;;;0.70;0.70;;;;;;;;;;4951619;28;20038;-62
2023/09/26 02:23:41;;;;;;;0.60;0.60;;;;;;;;;;4950228;28;20039;-62
2023/09/26 02:26:06;;;;;;;0.70;0.70;;;;;;;;;;4949686;28;20385;-63
2023/09/26 02:28:32;;;;;;;0.60;0.60;;;;;;;;;;4952722;28;20039;-62
2023/09/26 02:30:58;;;;;;;0.60;0.60;;;;;;;;;;4953062;28;20046;-64
2023/09/26 02:33:25;;;;;;;0.60;0.60;;;;;;;;;;4950471;28;20039;-63
2023/09/26 02:35:51;;;;;;;0.70;0.70;;;;;;;;;;4956106;28;20470;-62
2023/09/26 02:38:16;;;;;;;0.60;0.60;;;;;;;;;;4945185;28;20161;-64
2023/09/26 02:40:42;;;;;;;0.60;0.60;;;;;;;;;;4951048;28;20066;-64
2023/09/26 02:43:09;;;;;;;0.60;0.60;;;;;;;;;;4940193;28;20489;-63
2023/09/26 02:45:34;;;;;;;0.70;0.70;;;;;;;;;;4951243;28;20043;-63
2023/09/26 02:47:59;;;;;;;0.60;0.60;;;;;;;;;;4952994;28;20478;-62
2023/09/26 02:50:25;;;;;;;0.60;0.60;;;;;;;;;;4946429;28;20035;-62
2023/09/26 02:52:51;;;;;;;0.60;0.60;;;;;;;;;;4951314;28;20050;-63
2023/09/26 02:55:16;;;;;;;0.60;0.60;;;;;;;;;;4955748;28;20062;-61
2023/09/26 02:57:41;;;;;;;0.70;0.70;;;;;;;;;;4948737;28;20063;-63
2023/09/26 03:00:16;;;;;;;0.55;0.55;;;;;;;;;;4949113;28;20137;-63
2023/09/26 03:02:42;;;;;;;0.70;0.70;;;;;;;;;;4949523;28;20153;-63
2023/09/26 03:05:09;;;;;;;0.60;0.60;;;;;;;;;;4920898;28;20131;-63
2023/09/26 03:07:35;;;;;;;0.60;0.60;;;;;;;;;;4952503;28;20039;-63
2023/09/26 03:10:00;;;;;;;0.60;0.60;;;;;;;;;;4953830;28;20094;-62
2023/09/26 03:12:26;;;;;;;0.70;0.70;;;;;;;;;;4955261;28;20031;-62
2023/09/26 03:14:51;;;;;;;0.60;0.60;;;;;;;;;;4955413;28;20042;-62
2023/09/26 03:17:16;;;;;;;0.60;0.60;;;;;;;;;;4956594;28;20536;-66
2023/09/26 03:19:44;;;;;;;0.60;0.60;;;;;;;;;;4953367;28;20496;-65
2023/09/26 03:22:09;;;;;;;0.70;0.70;;;;;;;;;;4949108;28;20931;-62
2023/09/26 03:24:34;;;;;;;0.60;0.60;;;;;;;;;;4948585;28;20035;-62
2023/09/26 03:27:00;;;;;;;0.68;0.68;;;;;;;;;;4948210;28;20122;-63
2023/09/26 03:29:25;;;;;;;0.70;0.70;;;;;;;;;;4938240;28;20050;-64
2023/09/26 03:31:51;;;;;;;0.60;0.60;;;;;;;;;;4963470;28;20038;-61
2023/09/26 03:34:16;;;;;;;0.60;0.60;;;;;;;;;;4954869;28;20122;-63
2023/09/26 03:36:41;;;;;;;0.60;0.60;;;;;;;;;;4951876;28;20061;-62
2023/09/26 03:39:07;;;;;;;0.60;0.60;;;;;;;;;;4938594;28;20035;-62
2023/09/26 03:41:32;;;;;;;0.70;0.70;;;;;;;;;;4939658;28;20031;-61
2023/09/26 03:43:58;;;;;;;0.70;0.70;;;;;;;;;;4952227;28;20853;-62
2023/09/26 03:46:23;;;;;;;0.70;0.70;;;;;;;;;;4962908;28;20088;-61
2023/09/26 03:48:49;;;;;;;0.73;0.73;;;;;;;;;;4953886;28;20047;-62
2023/09/26 03:51:14;;;;;;;0.70;0.70;;;;;;;;;;4954238;28;20118;-61
2023/09/26 03:53:40;;;;;;;0.70;0.70;;;;;;;;;;4957620;28;20397;-60
2023/09/26 03:56:06;;;;;;;0.70;0.70;;;;;;;;;;4958177;28;20462;-61
2023/09/26 03:58:32;;;;;;;0.70;0.70;;;;;;;;;;4956824;28;20039;-62
2023/09/26 04:01:08;;;;;;;0.60;0.60;;;;;;;;;;4952552;28;20038;-61
2023/09/26 04:03:33;;;;;;;0.68;0.68;;;;;;;;;;4950555;28;20047;-64
2023/09/26 04:06:01;;;;;;;0.60;0.60;;;;;;;;;;4957441;28;20089;-63
2023/09/26 04:08:27;;;;;;;0.70;0.70;;;;;;;;;;4955353;28;20039;-63
2023/09/26 04:10:52;;;;;;;0.60;0.60;;;;;;;;;;4949597;28;20031;-61
2023/09/26 04:13:20;;;;;;;0.60;0.60;;;;;;;;;;4952445;28;20398;-63
2023/09/26 04:15:45;;;;;;;0.60;0.60;;;;;;;;;;4952597;28;20038;-64
2023/09/26 04:18:11;;;;;;;0.70;0.70;;;;;;;;;;4950730;28;20039;-62
2023/09/26 04:20:37;;;;;;;0.57;0.57;;;;;;;;;;4952640;28;20654;-62
2023/09/26 04:23:02;;;;;;;0.60;0.60;;;;;;;;;;4953345;28;20063;-64
2023/09/26 04:25:28;;;;;;;0.70;0.70;;;;;;;;;;4953205;28;20532;-64
2023/09/26 04:27:53;;;;;;;0.70;0.70;;;;;;;;;;4957456;28;20028;-63
2023/09/26 04:30:19;;;;;;;0.68;0.68;;;;;;;;;;4955848;28;20410;-60
2023/09/26 04:32:44;;;;;;;0.60;0.60;;;;;;;;;;4943432;28;20101;-63
2023/09/26 04:35:09;;;;;;;0.70;0.70;;;;;;;;;;4951715;28;20066;-63
2023/09/26 04:37:35;;;;;;;0.70;0.70;;;;;;;;;;4954635;28;20046;-61
2023/09/26 04:40:00;;;;;;;0.70;0.70;;;;;;;;;;4955366;28;20397;-61
2023/09/26 04:42:28;;;;;;;0.70;0.70;;;;;;;;;;4956578;28;20039;-64
2023/09/26 04:44:53;;;;;;;0.70;0.70;;;;;;;;;;4960164;28;20042;-63
2023/09/26 04:47:19;;;;;;;0.60;0.60;;;;;;;;;;4956878;28;20122;-63
2023/09/26 04:49:44;;;;;;;0.60;0.60;;;;;;;;;;4959743;28;20074;-62
2023/09/26 04:52:10;;;;;;;0.70;0.70;;;;;;;;;;4953565;28;20466;-62
2023/09/26 04:54:35;;;;;;;0.70;0.70;;;;;;;;;;4952687;28;20829;-61
2023/09/26 04:57:00;;;;;;;0.70;0.70;;;;;;;;;;4948890;28;20039;-64
2023/09/26 04:59:27;;;;;;;0.70;0.70;;;;;;;;;;4952538;28;20046;-65
2023/09/26 05:01:52;;;;;;;0.70;0.70;;;;;;;;;;4956547;28;20485;-62
2023/09/26 05:04:18;;;;;;;0.70;0.70;;;;;;;;;;4957897;28;20031;-65
2023/09/26 05:06:43;;;;;;;0.70;0.70;;;;;;;;;;4953389;28;20031;-61
2023/09/26 05:09:08;;;;;;;0.77;0.77;;;;;;;;;;4955476;28;20031;-63
2023/09/26 05:11:34;;;;;;;0.70;0.70;;;;;;;;;;4958941;28;20027;-62
2023/09/26 05:14:00;;;;;;;0.70;0.70;;;;;;;;;;4949206;28;20095;-62
2023/09/26 05:16:25;;;;;;;0.70;0.70;;;;;;;;;;4947147;28;20398;-63
2023/09/26 05:18:51;;;;;;;0.70;0.70;;;;;;;;;;4948999;28;20073;-62
2023/09/26 05:21:16;;;;;;;0.70;0.70;;;;;;;;;;4949175;28;20049;-64
2023/09/26 05:23:41;;;;;;;0.65;0.65;;;;;;;;;;4948303;28;20032;-65
2023/09/26 05:26:10;;;;;;;0.70;0.70;;;;;;;;;;4951931;28;20113;-64
2023/09/26 05:28:36;;;;;;;0.70;0.70;;;;;;;;;;4941491;28;20556;-65
2023/09/26 05:31:01;;;;;;;0.70;0.70;;;;;;;;;;4950785;28;20118;-65
2023/09/26 05:33:27;;;;;;;0.70;0.70;;;;;;;;;;4947384;28;20047;-63
2023/09/26 05:35:55;;;;;;;0.60;0.60;;;;;;;;;;4950196;28;20031;-65
2023/09/26 05:38:21;;;;;;;0.60;0.60;;;;;;;;;;4950396;28;20063;-63
2023/09/26 05:40:46;;;;;;;0.60;0.60;;;;;;;;;;4948432;28;20060;-65
2023/09/26 05:43:12;;;;;;;0.68;0.68;;;;;;;;;;4945523;28;20142;-64
2023/09/26 05:45:37;;;;;;;0.60;0.60;;;;;;;;;;4945253;28;20262;-64
2023/09/26 05:48:04;;;;;;;0.70;0.70;;;;;;;;;;4946759;28;20030;-64
2023/09/26 05:50:29;;;;;;;0.80;0.80;;;;;;;;;;4950967;28;20048;-64
2023/09/26 05:52:55;;;;;;;0.70;0.70;;;;;;;;;;4949273;28;20055;-63
2023/09/26 05:55:20;;;;;;;0.60;0.60;;;;;;;;;;4950640;28;20035;-64
2023/09/26 05:57:45;;;;;;;0.70;0.70;;;;;;;;;;4946997;28;20038;-64
2023/09/26 06:00:14;;;;;;;0.60;0.60;;;;;;;;;;4939785;28;20780;-64
2023/09/26 06:02:40;;;;;;;0.70;0.70;;;;;;;;;;4947006;28;20097;-64
2023/09/26 06:05:05;;;;;;;0.63;0.63;;;;;;;;;;4948372;28;20434;-63
2023/09/26 06:07:31;;;;;;;0.73;0.73;;;;;;;;;;4947337;28;20757;-64
2023/09/26 06:09:57;;;;;;;0.70;0.70;;;;;;;;;;4946696;28;20047;-64
2023/09/26 06:12:23;;;;;;;0.70;0.70;;;;;;;;;;4947309;28;20790;-64
2023/09/26 06:14:48;;;;;;;0.70;0.70;;;;;;;;;;4945159;28;20035;-66
2023/09/26 06:17:14;;;;;;;0.70;0.70;;;;;;;;;;4954457;28;20046;-65
2023/09/26 06:19:44;;;;;;;0.70;0.70;;;;;;;;;;4953824;28;20520;-64
2023/09/26 06:22:10;;;;;;;0.60;0.60;;;;;;;;;;4951562;28;20114;-63
2023/09/26 06:24:35;;;;;;;0.60;0.60;;;;;;;;;;4953964;28;20097;-63
2023/09/26 06:27:00;;;;;;;0.60;0.60;;;;;;;;;;4952031;28;20023;-63
2023/09/26 06:29:26;;;;;;;0.60;0.60;;;;;;;;;;4947434;28;20183;-64
2023/09/26 06:31:51;;;;;;;0.60;0.60;;;;;;;;;;4951932;28;20070;-69
2023/09/26 06:34:16;;;;;;;0.60;0.60;;;;;;;;;;4951698;28;20039;-65
2023/09/26 06:36:42;;;;;;;0.60;0.60;;;;;;;;;;4948963;28;20093;-64
2023/09/26 06:39:09;;;;;;;0.50;0.50;;;;;;;;;;4945463;28;20615;-64
2023/09/26 06:41:36;;;;;;;0.60;0.60;;;;;;;;;;4946021;28;20046;-63
2023/09/26 06:44:01;;;;;;;0.60;0.60;;;;;;;;;;4943938;28;20019;-65
2023/09/26 06:46:28;;;;;;;0.60;0.60;;;;;;;;;;4945586;28;20082;-63
2023/09/26 06:48:53;;;;;;;0.70;0.70;;;;;;;;;;4946939;28;20030;-64
2023/09/26 06:51:18;;;;;;;0.60;0.60;;;;;;;;;;4946827;28;20037;-64
2023/09/26 06:53:44;;;;;;;0.60;0.60;;;;;;;;;;4949861;28;20035;-64
2023/09/26 06:56:12;;;;;;;0.60;0.60;;;;;;;;;;4936409;28;20127;-65
2023/09/26 06:58:37;;;;;;;0.50;0.50;;;;;;;;;;4953965;28;20045;-64
2023/09/26 07:01:03;;;;;;;0.50;0.50;;;;;;;;;;4945843;28;20027;-64
2023/09/26 07:03:28;;;;;;;0.50;0.50;;;;;;;;;;4940578;28;20091;-64
2023/09/26 07:05:54;;;;;;;0.50;0.50;;;;;;;;;;4953325;28;20043;-65
2023/09/26 07:08:19;;;;;;;0.50;0.50;;;;;;;;;;4956060;28;20126;-65
2023/09/26 07:10:46;;;;;;;0.50;0.50;;;;;;;;;;4956436;28;20023;-64
2023/09/26 07:13:12;;;;;;;0.50;0.50;;;;;;;;;;4956584;28;20030;-66
2023/09/26 07:15:37;;;;;;;0.50;0.50;;;;;;;;;;4951847;28;20034;-66
2023/09/26 07:18:06;;;;;;;0.50;0.50;;;;;;;;;;4953798;28;20616;-64
2023/09/26 07:20:33;;;;;;;0.50;0.50;;;;;;;;;;4952612;28;20081;-64
2023/09/26 07:22:58;;;;;;;0.50;0.50;;;;;;;;;;4956111;28;20018;-63
2023/09/26 07:25:23;;;;;;;0.40;0.40;;;;;;;;;;4955229;28;20327;-66
2023/09/26 07:27:49;;;;;;;0.40;0.40;;;;;;;;;;4954137;28;20034;-64
2023/09/26 07:30:15;;;;;;;0.40;0.40;;;;;;;;;;4951420;28;20047;-64
2023/09/26 07:32:40;;;;;;;0.40;0.40;;;;;;;;;;4951580;28;20108;-63
2023/09/26 07:35:06;;;;;;;0.40;0.40;;;;;;;;;;4949721;28;20027;-66
2023/09/26 07:37:31;;;;;;;0.40;0.40;;;;;;;;;;4949909;28;20404;-63
2023/09/26 07:39:57;;;;;;;0.40;0.40;;;;;;;;;;4950296;28;20090;-63
2023/09/26 07:42:22;;;;;;;0.40;0.40;;;;;;;;;;4946402;28;20027;-64
2023/09/26 07:44:47;;;;;;;0.40;0.40;;;;;;;;;;4954387;28;20027;-64
2023/09/26 07:47:13;;;;;;;0.40;0.40;;;;;;;;;;4949741;28;20038;-63
2023/09/26 07:49:40;;;;;;;0.40;0.40;;;;;;;;;;4954654;28;20038;-63
2023/09/26 07:52:05;;;;;;;0.30;0.30;;;;;;;;;;4950169;28;20380;-64
2023/09/26 07:54:31;;;;;;;0.40;0.40;;;;;;;;;;4954827;28;20499;-65
2023/09/26 07:56:56;;;;;;;0.30;0.30;;;;;;;;;;4937558;28;20050;-64
2023/09/26 07:59:22;;;;;;;0.30;0.30;;;;;;;;;;4950437;28;20062;-64
2023/09/26 08:01:47;;;;;;;0.30;0.30;;;;;;;;;;4947262;28;20088;-64
2023/09/26 08:04:12;;;;;;;0.30;0.30;;;;;;;;;;4953286;28;20106;-65
2023/09/26 08:06:37;;;;;;;0.30;0.30;;;;;;;;;;4950614;28;20035;-65
2023/09/26 08:09:03;;;;;;;0.30;0.30;;;;;;;;;;4946348;28;20043;-63
2023/09/26 08:11:28;;;;;;;0.30;0.30;;;;;;;;;;4953610;28;20143;-65
2023/09/26 08:13:54;;;;;;;0.30;0.30;;;;;;;;;;4950659;28;20042;-64
2023/09/26 08:16:21;;;;;;;0.30;0.30;;;;;;;;;;4948543;28;20067;-66
2023/09/26 08:18:47;;;;;;;0.40;0.40;;;;;;;;;;4947856;28;20035;-62
2023/09/26 08:21:12;;;;;;;0.30;0.30;;;;;;;;;;4949620;28;20035;-63
2023/09/26 08:23:37;;;;;;;0.30;0.30;;;;;;;;;;4937369;28;20456;-63
2023/09/26 08:26:03;;;;;;;0.30;0.30;;;;;;;;;;4951305;28;20031;-65
2023/09/26 08:28:29;;;;;;;0.30;0.30;;;;;;;;;;4951600;28;20117;-63
2023/09/26 08:30:57;;;;;;;0.30;0.30;;;;;;;;;;4950798;28;20531;-63
2023/09/26 08:33:24;;;;;;;0.30;0.30;;;;;;;;;;4947629;28;20034;-64
2023/09/26 08:35:50;;;;;;;0.30;0.30;;;;;;;;;;4950576;28;20102;-65
2023/09/26 08:38:16;;;;;;;0.30;0.30;;;;;;;;;;4947974;28;20034;-64
2023/09/26 08:40:42;;;;;;;0.30;0.30;;;;;;;;;;4946647;28;20043;-65
2023/09/26 08:43:07;;;;;;;0.30;0.30;;;;;;;;;;4948327;28;20023;-63
2023/09/26 08:45:33;;;;;;;0.20;0.20;;;;;;;;;;4942205;28;20067;-63
2023/09/26 08:47:58;;;;;;;0.20;0.20;;;;;;;;;;4951433;28;20118;-64
2023/09/26 08:50:24;;;;;;;0.30;0.30;;;;;;;;;;4952194;28;20109;-61
2023/09/26 08:52:49;;;;;;;0.20;0.20;;;;;;;;;;4949535;28;20055;-63
2023/09/26 08:55:15;;;;;;;0.20;0.20;;;;;;;;;;4948130;28;20073;-63
2023/09/26 08:57:40;;;;;;;0.25;0.25;;;;;;;;;;4955401;28;20113;-65
2023/09/26 09:00:07;;;;;;;0.30;0.30;;;;;;;;;;4950561;28;20042;-62
2023/09/26 09:02:33;;;;;;;;;;;;;;;;;;4948398;28;20043;-63
2023/09/26 09:04:58;;;;;;;0.27;0.27;;;;;;;;;;4953448;28;20560;-63
2023/09/26 09:07:24;;;;;;;0.20;0.20;;;;;;;;;;4944795;28;20035;-64
2023/09/26 09:10:06;;;;;;;0.20;0.20;;;;;;;;;;4950701;28;20042;-66
2023/09/26 09:12:32;;;;;;;0.20;0.20;;;;;;;;;;4948307;28;20117;-65
2023/09/26 09:14:57;;;;;;;0.20;0.20;;;;;;;;;;4944116;28;20059;-66
2023/09/26 09:17:22;;;;;;;0.20;0.20;;;;;;;;;;4948316;28;20075;-66
2023/09/26 09:19:48;;;;;;;0.20;0.20;;;;;;;;;;4954053;28;20125;-62
2023/09/26 09:22:18;;;;;;;0.20;0.20;;;;;;;;;;4946675;28;20032;-66
2023/09/26 09:24:50;;;;;;;0.20;0.20;;;;;;;;;;4945980;28;20035;-63
2023/09/26 09:27:15;;;;;;;0.20;0.20;;;;;;;;;;4948604;28;20054;-63
2023/09/26 09:29:41;;;;;;;0.20;0.20;;;;;;;;;;4950155;28;21613;-62
2023/09/26 09:32:07;;;;;;;0.20;0.20;;;;;;;;;;4949781;28;20027;-63
2023/09/26 09:34:33;;;;;;;0.20;0.20;;;;;;;;;;4948989;28;20038;-64
2023/09/26 09:36:58;;;;;;;0.20;0.20;;;;;;;;;;4950557;28;20049;-63
2023/09/26 09:39:24;;;;;;;0.20;0.20;;;;;;;;;;4947757;28;20081;-62
2023/09/26 09:41:50;;;;;;;0.20;0.20;;;;;;;;;;4950545;28;20494;-63
2023/09/26 09:44:15;;;;;;;0.20;0.20;;;;;;;;;;4951771;28;20031;-63
2023/09/26 09:46:42;;;;;;;0.20;0.20;;;;;;;;;;4945861;28;20027;-63
2023/09/26 09:49:11;;;;;;;0.20;0.20;;;;;;;;;;4946803;28;20039;-62
2023/09/26 09:51:42;;;;;;;0.20;0.20;;;;;;;;;;4948466;28;20379;-65
2023/09/26 09:54:10;;;;;;;0.10;0.10;;;;;;;;;;4943391;28;20379;-64
2023/09/26 09:56:36;;;;;;;0.20;0.20;;;;;;;;;;4945020;28;20473;-63
2023/09/26 09:59:05;;;;;;;0.20;0.20;;;;;;;;;;4946597;28;20031;-65
2023/09/26 10:01:31;;;;;;;0.10;0.10;;;;;;;;;;4950311;28;20873;-63
2023/09/26 10:03:59;;;;;;;0.10;0.10;;;;;;;;;;4947797;28;20027;-62
2023/09/26 10:06:25;;;;;;;0.10;0.10;;;;;;;;;;4940326;28;20067;-63
2023/09/26 10:08:51;;;;;;;0.20;0.20;;;;;;;;;;4940120;28;20042;-62
2023/09/26 10:11:17;;;;;;;0.20;0.20;;;;;;;;;;4943537;28;20489;-64
2023/09/26 10:13:42;;;;;;;0.20;0.20;;;;;;;;;;4941624;28;20594;-62
2023/09/26 10:16:11;;;;;;;0.10;0.10;;;;;;;;;;4943577;28;20658;-63
2023/09/26 10:18:37;;;;;;;0.10;0.10;;;;;;;;;;4945959;28;20067;-63
2023/09/26 10:21:03;;;;;;;0.10;0.10;;;;;;;;;;4946340;28;20102;-62
2023/09/26 10:23:29;;;;;;;0.10;0.10;;;;;;;;;;4947171;28;20030;-64
2023/09/26 10:25:54;;;;;;;0.10;0.10;;;;;;;;;;4950843;28;20035;-64
2023/09/26 10:28:20;;;;;;;0.10;0.10;;;;;;;;;;4949047;28;20077;-64
2023/09/26 10:30:45;;;;;;;0.10;0.10;;;;;;;;;;4948739;28;20479;-62
2023/09/26 10:33:11;;;;;;;0.10;0.10;;;;;;;;;;4949606;28;20027;-63
2023/09/26 10:35:42;;;;;;;0.10;0.10;;;;;;;;;;4944201;28;20026;-63
2023/09/26 10:38:10;;;;;;;0.10;0.10;;;;;;;;;;4949463;28;20130;-64
2023/09/26 10:40:35;;;;;;;0.10;0.10;;;;;;;;;;4946812;28;20031;-63
2023/09/26 10:43:02;;;;;;;0.10;0.10;;;;;;;;;;4952645;28;20549;-63
2023/09/26 10:45:27;;;;;;;0.10;0.10;;;;;;;;;;4952147;28;20039;-63
2023/09/26 10:47:53;;;;;;;0.10;0.10;;;;;;;;;;4948778;28;20034;-62
2023/09/26 10:50:20;;;;;;;0.10;0.10;;;;;;;;;;4952457;28;20046;-63
2023/09/26 10:52:49;;;;;;;0.10;0.10;;;;;;;;;;4950379;28;20035;-64
2023/09/26 10:55:17;;;;;;;0.10;0.10;;;;;;;;;;4956475;28;20035;-62
2023/09/26 10:57:44;;;;;;;0.10;0.10;;;;;;;;;;4946515;28;20444;-62
2023/09/26 11:00:10;;;;;;;0.10;0.10;;;;;;;;;;4949583;28;20117;-62
2023/09/26 11:02:36;;;;;;;0.10;0.10;;;;;;;;;;4948074;28;20294;-63
2023/09/26 11:05:11;;;;;;;0.10;0.10;;;;;;;;;;4947631;28;20114;-63
2023/09/26 11:07:40;;;;;;;0.10;0.10;;;;;;;;;;4949239;28;20036;-63
2023/09/26 11:10:10;;;;;;;0.10;0.10;;;;;;;;;;4949925;28;20115;-65
2023/09/26 11:12:36;;;;;;;0.10;0.10;;;;;;;;;;4948698;28;20114;-63
2023/09/26 11:15:03;;;;;;;0.10;0.10;;;;;;;;;;4949453;28;20031;-64
2023/09/26 11:17:29;;;;;;;0.10;0.10;;;;;;;;;;4947957;28;20102;-63
2023/09/26 11:19:57;;;;;;;0.10;0.10;;;;;;;;;;4950931;28;20077;-63
2023/09/26 11:22:24;;;;;;;0.10;0.10;;;;;;;;;;4944210;28;20054;-65
2023/09/26 11:25:02;;;;;;;0.03;0.03;;;;;;;;;;4940131;28;20035;-63
2023/09/26 11:27:29;;;;;;;0.00;0.00;;;;;;;;;;4941812;28;20031;-63
2023/09/26 11:29:54;;;;;;;0.00;0.00;;;;;;;;;;4936252;28;20116;-64
2023/09/26 11:32:20;;;;;;;0.00;0.00;;;;;;;;;;4948304;28;20036;-64
2023/09/26 11:34:46;;;;;;;0.00;0.00;;;;;;;;;;4948094;28;20037;-63
2023/09/26 11:37:11;;;;;;;0.00;0.00;;;;;;;;;;4947500;28;20036;-64
2023/09/26 11:39:37;;;;;;;0.00;0.00;;;;;;;;;;4950981;28;20147;-62
2023/09/26 11:42:03;;;;;;;0.00;0.00;;;;;;;;;;4949277;28;20047;-63
2023/09/26 11:44:29;;;;;;;0.00;0.00;;;;;;;;;;4948507;28;20050;-63
2023/09/26 11:46:54;;;;;;;;;;;;;;;;;;4949388;28;20063;-64
2023/09/26 11:49:19;;;;;;;0.00;0.00;;;;;;;;;;4950745;28;20646;-63
2023/09/26 11:51:44;;;;;;;;;;;;;;;;;;4956116;28;20034;-64
2023/09/26 11:54:10;;;;;;;;;;;;;;;;;;4956102;28;19918;-65
2023/09/26 11:56:36;;;;;;;0.00;0.00;;;;;;;;;;4953061;28;20008;-62
2023/09/26 11:59:01;;;;;;;;;;;;;;;;;;4951683;28;20042;-64
2023/09/26 12:01:27;;;;;;;0.00;0.00;;;;;;;;;;4942744;28;20033;-64
2023/09/26 12:03:52;;;;;;;;;;;;;;;;;;4952502;28;20122;-66
2023/09/26 12:06:17;;;;;;;0.00;0.00;;;;;;;;;;4955710;28;19989;-64
2023/09/26 12:08:43;;;;;;;0.00;0.00;;;;;;;;;;4950677;28;20809;-63
2023/09/26 12:11:10;;;;;;;0.00;0.00;;;;;;;;;;4948587;28;20031;-63
2023/09/26 12:13:35;;;;;;;0.00;0.00;;;;;;;;;;4952020;28;20609;-64
2023/09/26 12:16:00;;;;;;;;;;;;;;;;;;4948732;28;20116;-65
2023/09/26 12:18:25;;;;;;;;;;;;;;;;;;4950323;28;19941;-63
2023/09/26 12:20:55;;;;;;;0.00;0.00;;;;;;;;;;4951299;28;19914;-64
2023/09/26 12:23:21;;;;;;;0.00;0.00;;;;;;;;;;4955249;28;20063;-64
2023/09/26 12:25:47;;;;;;;0.00;0.00;;;;;;;;;;4945562;28;20524;-64
2023/09/26 12:28:12;;;;;;;0.00;0.00;;;;;;;;;;4944614;28;20118;-64
2023/09/26 12:30:38;;;;;;;0.00;0.00;;;;;;;;;;4949267;28;20538;-65
2023/09/26 12:33:03;;;;;;;0.00;0.00;;;;;;;;;;4951755;28;20066;-63
2023/09/26 12:35:28;;;;;;;0.00;0.00;;;;;;;;;;4948351;28;20663;-66
2023/09/26 12:37:54;;;;;;;0.00;0.00;;;;;;;;;;4958069;28;20034;-65
2023/09/26 12:40:19;;;;;;;0.00;0.00;;;;;;;;;;4950453;28;20138;-64
2023/09/26 12:42:45;;;;;;;0.00;0.00;;;;;;;;;;4954047;28;20443;-64
2023/09/26 12:45:10;;;;;;;0.00;0.00;;;;;;;;;;4953490;28;20023;-64
2023/09/26 12:47:36;;;;;;;0.00;0.00;;;;;;;;;;4952522;28;20490;-62
2023/09/26 12:50:05;;;;;;;0.00;0.00;;;;;;;;;;4954568;28;20058;-64
2023/09/26 12:52:31;;;;;;;0.00;0.00;;;;;;;;;;4950653;28;20434;-64
2023/09/26 12:54:56;;;;;;;0.00;0.00;;;;;;;;;;4954342;28;20434;-65
2023/09/26 12:57:22;;;;;;;0.00;0.00;;;;;;;;;;4950304;28;20031;-64
2023/09/26 12:59:51;;;;;;;0.00;0.00;;;;;;;;;;4952709;28;20484;-63
2023/09/26 13:02:16;;;;;;;0.00;0.00;;;;;;;;;;4949700;28;20089;-63
2023/09/26 13:04:42;;;;;;;0.00;0.00;;;;;;;;;;4948977;28;20035;-63
2023/09/26 13:07:07;;;;;;;0.00;0.00;;;;;;;;;;4952603;28;20035;-64
2023/09/26 13:09:33;;;;;;;0.00;0.00;;;;;;;;;;4953815;28;20485;-64
2023/09/26 13:11:58;;;;;;;0.00;0.00;;;;;;;;;;4951119;28;20516;-64
2023/09/26 13:14:23;;;;;;;0.00;0.00;;;;;;;;;;4952518;28;20481;-64
2023/09/26 13:16:49;;;;;;;0.00;0.00;;;;;;;;;;4952094;28;20028;-64
2023/09/26 13:19:14;;;;;;;0.00;0.00;;;;;;;;;;4946598;28;20127;-63
2023/09/26 13:21:39;;;;;;;0.00;0.00;;;;;;;;;;4953076;28;20448;-64
2023/09/26 13:24:05;;;;;;;0.00;0.00;;;;;;;;;;4949222;28;20106;-65
2023/09/26 13:26:30;;;;;;;0.00;0.00;;;;;;;;;;4951172;28;20027;-63
2023/09/26 13:28:56;;;;;;;0.00;0.00;;;;;;;;;;4951814;28;20045;-64
2023/09/26 13:31:21;;;;;;;0.00;0.00;;;;;;;;;;4952788;28;20508;-64
2023/09/26 13:33:46;;;;;;;0.00;0.00;;;;;;;;;;4949897;28;20022;-64
2023/09/26 13:36:11;;;;;;;0.00;0.00;;;;;;;;;;4952877;28;20040;-64
2023/09/26 13:38:37;;;;;;;0.00;0.00;;;;;;;;;;4952913;28;20046;-65
2023/09/26 13:41:05;;;;;;;0.00;0.00;;;;;;;;;;4950259;28;20027;-64
2023/09/26 13:43:30;;;;;;;0.00;0.00;;;;;;;;;;4948507;28;20032;-64
2023/09/26 13:45:56;;;;;;;0.00;0.00;;;;;;;;;;4943158;28;20034;-63
2023/09/26 13:48:21;;;;;;;0.00;0.00;;;;;;;;;;4947088;28;20031;-65
2023/09/26 13:50:46;;;;;;;0.00;0.00;;;;;;;;;;4950934;28;20035;-64
2023/09/26 13:53:12;;;;;;;0.00;0.00;;;;;;;;;;4951100;28;20067;-64
2023/09/26 13:55:37;;;;;;;0.00;0.00;;;;;;;;;;4947794;28;20059;-64
2023/09/26 13:58:02;;;;;;;0.00;0.00;;;;;;;;;;4947278;28;20549;-64
2023/09/26 14:00:27;;;;;;;0.00;0.00;;;;;;;;;;4947950;28;20039;-63
2023/09/26 14:02:53;;;;;;;0.00;0.00;;;;;;;;;;4950776;28;20114;-64
2023/09/26 14:05:20;;;;;;;0.00;0.00;;;;;;;;;;4947149;28;20057;-64
2023/09/26 14:07:46;;;;;;;0.00;0.00;;;;;;;;;;4952798;28;20077;-64
2023/09/26 14:10:11;;;;;;;0.00;0.00;;;;;;;;;;4945980;28;20076;-64
2023/09/26 14:12:37;;;;;;;0.00;0.00;;;;;;;;;;4944114;28;20034;-63
2023/09/26 14:15:03;;;;;;;0.00;0.00;;;;;;;;;;4948636;28;20557;-64
2023/09/26 14:17:28;;;;;;;0.00;0.00;;;;;;;;;;4951688;28;20113;-64
2023/09/26 14:19:53;;;;;;;0.00;0.00;;;;;;;;;;4950375;28;20763;-64
2023/09/26 14:22:19;;;;;;;0.00;0.00;;;;;;;;;;4948470;28;20492;-63
2023/09/26 14:24:44;;;;;;;0.00;0.00;;;;;;;;;;4942489;28;20027;-64
2023/09/26 14:27:10;;;;;;;0.00;0.00;;;;;;;;;;4945948;28;20497;-64
2023/09/26 14:29:35;;;;;;;0.00;0.00;;;;;;;;;;4947786;28;20131;-66
2023/09/26 14:32:00;;;;;;;0.00;0.00;;;;;;;;;;4944837;28;20106;-67
2023/09/26 14:34:26;;;;;;;0.00;0.00;;;;;;;;;;4948945;28;20027;-65
2023/09/26 14:36:51;;;;;;;0.00;0.00;;;;;;;;;;4952877;28;20031;-65